FTY weather

Fulton County Airport Brown Field
Atlanta, Georgia, United States

Public forecast

Using degrees Fahrenheit for public forecast. Weather courtesy of forecast.io.

Current aviation weather report (METAR) for Fulton County Airport Brown Field

Retrieved 2019/12/11 09:53 UTC (1 hour ago):

KFTY 110953Z VRB04KT 10SM CLR 02/M01 A3033 RMK AO2 SLP275 T00221006

Aviation forecast (TAF) for Fulton County Airport Brown Field

Retrieved 2019/12/11 06:30 UTC (5 hours ago):

TAF KFTY 110528Z 1106/1206 32009G19KT P6SM VCSH SCT012 OVC060 TEMPO 1106/1110 6SM -SHRA BKN012 BKN050 FM111000 33010KT P6SM SCT050 BKN100 FM111300 33008KT P6SM FEW250 FM120200 03004KT P6SM SKC